Time;durP1;ratioP1;P1;durP2;ratioP2;P2;SDS_P1;SDS_P2;PMS_P1;PMS_P2;Temp;Humidity;BMP_temperature;BMP_pressure;BME280_temperature;BME280_humidity;BME280_pressure;Samples;Min_cycle;Max_cycle;Signal;HPM_P1;HPM_P2
2023/03/04 00:01:28;;;;;;;68.43;62.83;;;8.60;99.90;;;;;;5188367;28;20029;-68
2023/03/04 00:03:58;;;;;;;61.08;55.85;;;8.50;99.90;;;;;;5214046;28;20431;-68
2023/03/04 00:06:29;;;;;;;62.20;57.20;;;8.50;99.90;;;;;;5220080;28;20029;-67
2023/03/04 00:09:02;;;;;;;56.00;51.45;;;8.60;99.90;;;;;;5226465;28;20063;-68
2023/03/04 00:11:33;;;;;;;59.13;54.25;;;8.60;99.90;;;;;;5209521;28;20030;-68
2023/03/04 00:14:04;;;;;;;57.78;53.08;;;8.60;99.90;;;;;;5205963;28;20025;-68
2023/03/04 00:16:35;;;;;;;57.85;53.10;;;8.80;99.90;;;;;;5218857;28;20143;-68
2023/03/04 00:19:06;;;;;;;58.85;53.92;;;8.70;99.90;;;;;;5226381;28;20380;-68
2023/03/04 00:21:36;;;;;;;58.58;53.97;;;8.70;99.90;;;;;;5226462;28;20026;-67
2023/03/04 00:24:07;;;;;;;56.17;51.60;;;8.70;99.90;;;;;;5226533;28;20029;-67
2023/03/04 00:26:38;;;;;;;53.53;49.20;;;8.80;99.90;;;;;;5213412;28;20030;-67
2023/03/04 00:29:09;;;;;;;59.17;54.58;;;8.80;99.90;;;;;;5209994;28;20029;-67
2023/03/04 00:31:40;;;;;;;60.95;55.83;;;8.40;99.90;;;;;;5219220;28;20408;-68
2023/03/04 00:34:11;;;;;;;59.70;54.63;;;8.40;99.90;;;;;;5230592;28;20411;-68
2023/03/04 00:36:43;;;;;;;41.42;37.88;;;8.60;99.90;;;;;;5228996;28;20023;-68
2023/03/04 00:39:14;;;;;;;67.25;61.75;;;8.70;99.90;;;;;;5225962;28;20480;-67
2023/03/04 00:41:45;;;;;;;61.53;56.42;;;8.60;99.90;;;;;;5228714;28;20021;-68
2023/03/04 00:44:16;;;;;;;60.20;55.30;;;8.40;99.90;;;;;;5230219;28;20104;-68
2023/03/04 00:46:47;;;;;;;61.55;55.95;;;8.40;99.90;;;;;;5215713;28;20069;-68
2023/03/04 00:49:18;;;;;;;67.85;62.17;;;8.00;99.90;;;;;;5209665;28;20018;-68
2023/03/04 00:51:48;;;;;;;59.28;54.10;;;7.90;99.90;;;;;;5209344;28;20473;-68
2023/03/04 00:54:20;;;;;;;60.92;55.80;;;8.00;99.90;;;;;;5192128;28;20025;-68
2023/03/04 00:56:51;;;;;;;68.95;63.35;;;8.10;99.90;;;;;;5224699;28;20388;-69
2023/03/04 00:59:22;;;;;;;64.38;58.85;;;8.00;99.90;;;;;;5230113;28;20033;-69
2023/03/04 01:01:53;;;;;;;67.00;61.35;;;7.90;99.90;;;;;;5230157;28;20017;-67
2023/03/04 01:04:24;;;;;;;66.30;60.67;;;7.90;99.90;;;;;;5210244;28;20115;-67
2023/03/04 01:06:54;;;;;;;61.72;56.33;;;8.10;99.90;;;;;;5207155;28;20037;-67
2023/03/04 01:09:25;;;;;;;62.55;56.97;;;8.40;99.90;;;;;;5219198;28;20033;-69
2023/03/04 01:11:56;;;;;;;58.58;53.50;;;8.50;99.90;;;;;;5209189;28;20084;-68
2023/03/04 01:14:27;;;;;;;62.95;57.53;;;8.50;99.90;;;;;;5209224;28;20030;-68
2023/03/04 01:16:58;;;;;;;63.70;58.42;;;8.00;99.90;;;;;;5206943;28;20033;-67
2023/03/04 01:19:29;;;;;;;65.03;59.45;;;8.20;99.90;;;;;;5221769;28;20599;-68
2023/03/04 01:22:00;;;;;;;63.40;57.50;;;7.90;99.90;;;;;;5209054;28;20393;-68
2023/03/04 01:24:31;;;;;;;60.47;55.45;;;8.00;99.90;;;;;;5209107;28;20087;-68
2023/03/04 01:27:02;;;;;;;62.40;56.78;;;8.50;99.90;;;;;;5206953;28;20110;-69
2023/03/04 01:29:32;;;;;;;66.30;61.00;;;8.40;99.90;;;;;;5228819;28;20029;-67
2023/03/04 01:32:04;;;;;;;67.07;61.05;;;8.20;99.90;;;;;;5217976;28;20112;-67
2023/03/04 01:34:35;;;;;;;60.88;55.45;;;8.00;99.90;;;;;;5208771;28;20079;-67
2023/03/04 01:37:06;;;;;;;62.10;56.92;;;8.00;99.90;;;;;;5224816;28;20469;-69
2023/03/04 01:39:36;;;;;;;72.68;66.32;;;8.00;99.90;;;;;;5228637;28;20086;-68
2023/03/04 01:42:18;;;;;;;44.25;33.17;;;7.70;99.90;;;;;;5229376;28;20104;-68
2023/03/04 01:44:50;;;;;;;22.77;20.73;;;8.20;99.90;;;;;;5229345;28;20028;-68
2023/03/04 01:47:25;;;;;;;0.00;0.00;;;8.00;99.90;;;;;;5211687;28;20031;-68
2023/03/04 01:49:57;;;;;;;4.25;3.88;;;8.30;99.90;;;;;;5208673;28;20076;-68
2023/03/04 01:52:28;;;;;;;88.95;79.45;;;8.40;99.90;;;;;;5208577;28;20117;-68
2023/03/04 01:54:59;;;;;;;63.67;57.88;;;8.10;99.90;;;;;;5210268;28;21252;-69
2023/03/04 01:57:35;;;;;;;65.57;59.90;;;8.30;99.90;;;;;;5213695;28;20049;-69
2023/03/04 02:00:24;;;;;;;64.95;58.88;;;8.00;99.90;;;;;;5208494;28;20037;-69
2023/03/04 02:03:06;;;;;;;65.63;60.10;;;7.90;99.90;;;;;;5208448;28;20037;-68
2023/03/04 02:05:41;;;;;;;64.38;58.67;;;8.20;99.90;;;;;;5215684;28;20021;-68
2023/03/04 02:08:14;;;;;;;64.45;58.50;;;8.40;99.90;;;;;;5208639;28;20056;-69
2023/03/04 02:10:45;;;;;;;64.95;59.15;;;8.60;99.90;;;;;;5208221;28;20612;-68
2023/03/04 02:13:16;;;;;;;8.93;8.02;;;8.60;99.90;;;;;;5208247;28;20491;-68
2023/03/04 02:15:50;;;;;;;65.07;59.10;;;8.30;99.90;;;;;;5216093;28;20021;-68
2023/03/04 02:18:25;;;;;;;60.28;54.95;;;8.70;99.90;;;;;;5190277;28;20046;-69
2023/03/04 02:21:11;;;;;;;63.92;58.40;;;8.50;99.90;;;;;;5207857;28;20029;-70
2023/03/04 02:24:07;;;;;;;67.88;61.85;;;8.50;99.90;;;;;;5207967;28;20430;-69
2023/03/04 02:26:40;;;;;;;68.50;62.38;;;8.20;99.90;;;;;;5700570;22;20076;-69
2023/03/04 02:29:13;;;;;;;70.03;63.53;;;8.00;99.90;;;;;;5228769;28;20453;-69
2023/03/04 02:31:47;;;;;;;69.28;63.17;;;8.30;99.90;;;;;;5228452;28;20025;-68
2023/03/04 02:34:30;;;;;;;66.43;59.88;;;8.10;99.90;;;;;;5227927;28;20017;-69
2023/03/04 02:37:02;;;;;;;64.68;58.90;;;8.10;99.90;;;;;;5228020;28;20495;-68
2023/03/04 02:39:40;;;;;;;66.05;60.13;;;8.20;99.90;;;;;;5228334;28;20554;-68
2023/03/04 02:42:11;;;;;;;61.25;56.00;;;8.10;99.90;;;;;;5228404;28;20115;-69
2023/03/04 02:44:46;;;;;;;63.08;57.38;;;8.20;99.90;;;;;;5228266;28;20028;-69
2023/03/04 02:47:17;;;;;;;64.88;58.97;;;8.10;99.90;;;;;;5228138;28;20017;-69
2023/03/04 02:49:48;;;;;;;57.28;52.30;;;8.10;99.90;;;;;;5226189;28;20025;-68
2023/03/04 02:52:22;;;;;;;61.60;56.22;;;8.20;99.90;;;;;;5219896;28;20519;-67
2023/03/04 02:54:53;;;;;;;57.45;52.45;;;8.10;99.90;;;;;;5207368;28;20022;-69
2023/03/04 02:57:24;;;;;;;58.10;52.70;;;8.30;99.90;;;;;;5190805;28;20749;-67
2023/03/04 02:59:55;;;;;;;59.80;54.30;;;8.30;99.90;;;;;;5194146;28;20090;-68
2023/03/04 03:02:26;;;;;;;58.88;53.97;;;8.60;99.90;;;;;;5190199;28;20014;-68
2023/03/04 03:04:57;;;;;;;58.53;53.42;;;8.50;99.90;;;;;;5203761;28;20539;-69
2023/03/04 03:07:28;;;;;;;57.53;52.10;;;8.60;99.90;;;;;;5207115;28;20029;-68
2023/03/04 03:09:59;;;;;;;61.05;55.17;;;8.40;99.90;;;;;;5206643;28;20033;-69
2023/03/04 03:12:30;;;;;;;61.30;56.05;;;8.60;99.90;;;;;;5206899;28;20032;-68
2023/03/04 03:15:01;;;;;;;55.95;51.05;;;8.30;99.90;;;;;;5206917;28;20393;-68
2023/03/04 03:17:32;;;;;;;67.43;61.60;;;8.40;99.90;;;;;;5206598;28;20055;-68
2023/03/04 03:20:03;;;;;;;76.32;70.45;;;8.50;99.90;;;;;;5206244;28;20393;-68
2023/03/04 03:22:34;;;;;;;59.55;54.30;;;8.60;99.90;;;;;;5206586;28;20029;-68
2023/03/04 03:25:06;;;;;;;58.63;53.20;;;8.60;99.90;;;;;;5206620;28;20469;-69
2023/03/04 03:27:37;;;;;;;56.70;51.50;;;8.40;99.90;;;;;;5206398;28;20054;-68
2023/03/04 03:30:15;;;;;;;57.60;52.70;;;8.60;99.90;;;;;;5206181;28;20052;-68
2023/03/04 03:32:46;;;;;;;53.92;49.28;;;8.50;99.90;;;;;;5206525;28;20033;-68
2023/03/04 03:35:17;;;;;;;59.25;53.90;;;8.40;99.90;;;;;;5206573;28;20021;-68
2023/03/04 03:37:48;;;;;;;57.78;52.67;;;8.40;99.90;;;;;;5206409;28;20037;-68
2023/03/04 03:40:18;;;;;;;57.50;52.33;;;8.00;99.90;;;;;;5205962;28;20021;-67
2023/03/04 03:42:49;;;;;;;56.70;51.65;;;8.20;99.90;;;;;;5206116;28;20036;-68
2023/03/04 03:45:20;;;;;;;56.63;51.38;;;8.50;99.90;;;;;;5206374;28;20027;-68
2023/03/04 03:47:51;;;;;;;58.47;53.55;;;8.50;99.90;;;;;;5203154;28;20036;-68
2023/03/04 03:50:22;;;;;;;60.65;55.50;;;8.10;99.90;;;;;;5204890;28;20033;-68
2023/03/04 03:52:53;;;;;;;57.60;52.75;;;8.00;99.90;;;;;;5206365;28;20108;-68
2023/03/04 03:55:24;;;;;;;59.25;54.20;;;8.00;99.90;;;;;;5206133;28;20037;-67
2023/03/04 03:57:55;;;;;;;57.67;52.20;;;8.10;99.90;;;;;;5206035;28;20041;-68
2023/03/04 04:00:25;;;;;;;54.10;49.38;;;8.40;99.90;;;;;;5205337;28;20371;-68
2023/03/04 04:02:58;;;;;;;57.50;52.22;;;8.30;99.90;;;;;;5206026;28;20038;-68
2023/03/04 04:05:29;;;;;;;55.03;50.35;;;8.30;99.90;;;;;;5206010;28;20094;-68
2023/03/04 04:08:00;;;;;;;58.38;53.17;;;8.10;99.90;;;;;;5206156;28;20076;-68
2023/03/04 04:10:31;;;;;;;58.13;53.08;;;8.30;99.90;;;;;;5205618;28;20029;-67
2023/03/04 04:13:02;;;;;;;60.65;54.95;;;7.80;99.90;;;;;;5206084;28;20496;-67
2023/03/04 04:15:33;;;;;;;57.92;52.38;;;7.50;99.90;;;;;;5205920;28;20024;-67
2023/03/04 04:18:05;;;;;;;60.40;55.10;;;7.70;99.90;;;;;;5205940;28;20030;-67
2023/03/04 04:20:36;;;;;;;59.00;53.30;;;7.60;99.90;;;;;;5205047;28;20029;-67
2023/03/04 04:23:06;;;;;;;59.67;53.95;;;7.70;99.90;;;;;;5205968;28;20029;-67
2023/03/04 04:25:37;;;;;;;57.83;52.63;;;7.80;99.90;;;;;;5205660;28;20091;-67
2023/03/04 04:28:08;;;;;;;62.53;56.83;;;7.80;99.90;;;;;;5205757;28;20158;-67
2023/03/04 04:30:39;;;;;;;61.85;56.17;;;7.80;99.90;;;;;;5205176;28;20025;-68
2023/03/04 04:33:10;;;;;;;59.97;54.20;;;8.00;99.90;;;;;;5205831;28;20036;-68
2023/03/04 04:35:41;;;;;;;61.65;55.97;;;7.80;99.90;;;;;;5205696;28;20100;-68
2023/03/04 04:38:12;;;;;;;60.85;55.35;;;7.80;99.90;;;;;;5205592;28;20089;-69
2023/03/04 04:40:43;;;;;;;55.63;50.40;;;7.80;99.90;;;;;;5204171;28;20053;-69
2023/03/04 04:43:14;;;;;;;56.13;51.22;;;7.70;99.90;;;;;;5205642;28;20065;-68
2023/03/04 04:45:45;;;;;;;61.70;56.08;;;7.90;99.90;;;;;;5205689;28;20025;-68
2023/03/04 04:48:15;;;;;;;56.20;51.30;;;7.50;99.90;;;;;;5205766;28;20021;-69
2023/03/04 04:50:52;;;;;;;55.30;50.58;;;7.80;99.90;;;;;;5193485;28;20441;-69
2023/03/04 04:53:23;;;;;;;56.53;51.30;;;7.70;99.90;;;;;;5185200;28;20037;-68
2023/03/04 04:55:54;;;;;;;58.58;53.17;;;7.10;99.90;;;;;;5184765;28;20034;-69
2023/03/04 04:58:25;;;;;;;54.90;50.10;;;7.70;99.90;;;;;;5190142;28;20046;-68
2023/03/04 05:00:56;;;;;;;58.30;53.13;;;7.70;99.90;;;;;;5205617;28;20091;-68
2023/03/04 05:03:27;;;;;;;57.88;52.53;;;7.30;99.90;;;;;;5205686;28;20033;-68
2023/03/04 05:05:58;;;;;;;59.13;53.67;;;7.60;99.90;;;;;;5205566;28;20029;-68
2023/03/04 05:08:29;;;;;;;57.72;52.55;;;7.60;99.90;;;;;;5204880;28;20041;-68
2023/03/04 05:11:01;;;;;;;60.40;55.08;;;7.60;99.90;;;;;;5205689;28;20029;-69
2023/03/04 05:13:33;;;;;;;58.67;53.45;;;7.40;99.90;;;;;;5207387;28;20025;-68
2023/03/04 05:16:04;;;;;;;57.40;52.47;;;7.60;99.90;;;;;;5209357;28;20032;-68
2023/03/04 05:18:35;;;;;;;58.60;53.42;;;7.60;99.90;;;;;;5208658;28;20113;-68
2023/03/04 05:21:07;;;;;;;59.47;53.83;;;7.50;99.90;;;;;;5209233;28;20104;-68
2023/03/04 05:23:40;;;;;;;62.40;56.13;;;7.50;99.90;;;;;;5209157;28;20480;-67
2023/03/04 05:26:14;;;;;;;69.35;61.97;;;7.60;99.90;;;;;;5208789;28;20041;-69
2023/03/04 05:28:45;;;;;;;73.72;65.63;;;7.10;99.90;;;;;;5208601;28;20061;-68
2023/03/04 05:31:16;;;;;;;68.65;61.58;;;7.20;99.90;;;;;;5208856;28;20029;-68
2023/03/04 05:33:47;;;;;;;73.88;65.82;;;7.40;99.90;;;;;;5208582;28;20060;-68
2023/03/04 05:36:18;;;;;;;68.57;61.55;;;7.70;99.90;;;;;;5208849;28;20544;-67
2023/03/04 05:38:49;;;;;;;69.32;61.95;;;7.30;99.90;;;;;;5208151;28;20039;-68
2023/03/04 05:41:21;;;;;;;75.78;67.60;;;7.50;99.90;;;;;;5191229;28;20029;-69
2023/03/04 05:43:52;;;;;;;75.88;67.57;;;7.60;99.90;;;;;;5208792;28;20029;-68
2023/03/04 05:46:24;;;;;;;73.00;65.00;;;7.60;99.90;;;;;;5208212;28;20033;-69
2023/03/04 05:48:55;;;;;;;76.22;66.63;;;7.70;99.90;;;;;;5190878;28;20670;-68
2023/03/04 05:51:25;;;;;;;77.72;69.28;;;7.80;99.90;;;;;;5208592;28;20104;-69
2023/03/04 05:53:56;;;;;;;76.60;68.53;;;7.90;99.90;;;;;;5208509;28;20108;-68
2023/03/04 05:56:29;;;;;;;80.13;71.30;;;8.00;99.90;;;;;;5207388;28;20076;-67
2023/03/04 05:59:00;;;;;;;85.68;74.65;;;7.80;99.90;;;;;;5208271;28;20041;-66
2023/03/04 06:01:30;;;;;;;81.35;72.57;;;8.00;99.90;;;;;;5208446;28;20025;-67
2023/03/04 06:04:01;;;;;;;78.97;70.47;;;8.10;99.90;;;;;;5208193;28;20362;-68
2023/03/04 06:06:32;;;;;;;69.75;62.15;;;8.10;99.90;;;;;;5206441;28;20465;-67
2023/03/04 06:09:03;;;;;;;70.13;63.03;;;7.80;99.90;;;;;;5208078;28;20433;-68
2023/03/04 06:11:34;;;;;;;64.25;57.95;;;8.20;99.90;;;;;;5208241;28;20064;-68
2023/03/04 06:14:05;;;;;;;63.22;57.15;;;8.30;99.90;;;;;;5208123;28;20057;-67
2023/03/04 06:16:36;;;;;;;63.80;57.70;;;8.20;99.90;;;;;;5206588;28;20385;-68
2023/03/04 06:19:07;;;;;;;67.65;60.83;;;8.30;99.90;;;;;;5207789;28;20044;-67
2023/03/04 06:21:37;;;;;;;62.35;56.33;;;8.20;99.90;;;;;;5207861;28;20021;-68
2023/03/04 06:24:08;;;;;;;65.80;59.00;;;8.10;99.90;;;;;;5207666;28;20359;-67
2023/03/04 06:26:39;;;;;;;69.90;63.20;;;8.10;99.90;;;;;;5707473;22;20041;-68
2023/03/04 06:29:10;;;;;;;65.28;58.42;;;8.20;99.90;;;;;;5228515;28;20528;-68
2023/03/04 06:31:41;;;;;;;61.63;55.15;;;8.30;99.90;;;;;;5210135;28;20021;-68
2023/03/04 06:34:12;;;;;;;63.22;57.20;;;8.30;99.90;;;;;;5228346;28;20104;-68
2023/03/04 06:36:43;;;;;;;61.80;55.88;;;8.20;99.90;;;;;;5228395;28;20532;-67
2023/03/04 06:39:13;;;;;;;59.17;53.67;;;8.40;99.90;;;;;;5226333;28;20029;-67
2023/03/04 06:41:45;;;;;;;62.75;56.80;;;8.50;99.90;;;;;;5227785;28;20029;-68
2023/03/04 06:44:15;;;;;;;60.45;54.45;;;8.30;99.90;;;;;;5227927;28;20112;-68
2023/03/04 06:46:46;;;;;;;59.45;53.75;;;8.50;99.90;;;;;;5228176;28;20104;-69
2023/03/04 06:49:17;;;;;;;66.13;59.92;;;8.70;99.90;;;;;;5227443;28;20049;-68
2023/03/04 06:51:48;;;;;;;62.70;56.63;;;8.90;99.90;;;;;;5227851;28;20063;-68
2023/03/04 06:54:19;;;;;;;64.25;58.38;;;8.60;99.90;;;;;;5227996;28;20077;-68
2023/03/04 06:56:50;;;;;;;91.55;72.95;;;8.90;99.90;;;;;;5227792;28;20627;-68
2023/03/04 06:59:21;;;;;;;73.05;64.63;;;8.90;99.90;;;;;;5221133;28;20040;-68
2023/03/04 07:01:53;;;;;;;65.22;59.17;;;9.10;99.90;;;;;;5197100;28;20029;-68
2023/03/04 07:04:24;;;;;;;65.70;59.30;;;9.10;99.90;;;;;;5206603;28;20116;-68
2023/03/04 07:06:54;;;;;;;60.10;54.28;;;9.10;99.90;;;;;;5219758;28;20131;-67
2023/03/04 07:09:25;;;;;;;57.50;51.97;;;9.20;99.90;;;;;;5207820;28;20037;-69
2023/03/04 07:11:56;;;;;;;64.38;58.58;;;9.10;99.90;;;;;;5189001;28;20030;-68
2023/03/04 07:14:27;;;;;;;58.67;53.08;;;9.20;99.90;;;;;;5206159;28;20029;-68
2023/03/04 07:16:58;;;;;;;59.08;53.88;;;9.00;99.90;;;;;;5206864;28;20072;-68
2023/03/04 07:19:29;;;;;;;62.88;57.22;;;9.00;99.90;;;;;;5206541;28;20856;-68
2023/03/04 07:22:00;;;;;;;59.20;53.72;;;8.90;99.90;;;;;;5206612;28;20029;-68
2023/03/04 07:24:31;;;;;;;62.58;57.20;;;9.10;99.90;;;;;;5214072;28;20025;-68
2023/03/04 07:27:01;;;;;;;63.80;58.20;;;9.10;99.90;;;;;;5226865;28;20102;-67
2023/03/04 07:29:32;;;;;;;60.80;55.40;;;9.00;99.90;;;;;;5227317;28;20409;-68
2023/03/04 07:32:07;;;;;;;62.50;56.95;;;9.10;99.90;;;;;;5227139;28;20025;-68
2023/03/04 07:34:38;;;;;;;62.92;57.25;;;9.30;99.90;;;;;;5217456;28;20044;-68
2023/03/04 07:37:09;;;;;;;62.40;56.65;;;9.70;99.90;;;;;;5206065;28;20031;-68
2023/03/04 07:39:40;;;;;;;57.28;52.28;;;9.70;99.90;;;;;;5203628;28;20034;-68
2023/03/04 07:42:11;;;;;;;56.65;51.97;;;9.30;99.90;;;;;;5206923;28;20444;-68
2023/03/04 07:44:41;;;;;;;141.48;126.82;;;9.40;99.90;;;;;;5206577;28;20041;-66
2023/03/04 07:47:12;;;;;;;72.22;66.32;;;9.30;99.90;;;;;;5204550;28;20453;-63
2023/03/04 07:49:43;;;;;;;71.57;65.85;;;9.50;99.90;;;;;;5206488;28;20029;-63
2023/03/04 07:52:14;;;;;;;73.15;67.53;;;9.40;99.90;;;;;;5206235;28;20543;-63
2023/03/04 07:54:45;;;;;;;70.57;65.30;;;9.80;99.90;;;;;;5206308;28;20484;-63
2023/03/04 07:57:16;;;;;;;93.00;84.35;;;9.80;99.90;;;;;;5205328;28;20029;-63
2023/03/04 07:59:46;;;;;;;71.38;65.78;;;9.90;99.90;;;;;;5206088;28;20033;-63
2023/03/04 08:02:17;;;;;;;73.05;67.30;;;10.00;99.90;;;;;;5205211;28;20022;-64
2023/03/04 08:04:48;;;;;;;69.03;63.83;;;10.10;99.90;;;;;;5209694;28;20057;-63
2023/03/04 08:07:19;;;;;;;63.67;58.78;;;10.00;99.90;;;;;;5204114;28;20021;-63
2023/03/04 08:09:50;;;;;;;89.38;82.78;;;10.10;99.90;;;;;;5196052;28;20030;-64
2023/03/04 08:12:23;;;;;;;61.00;56.08;;;9.90;99.90;;;;;;5203354;28;20558;-64
2023/03/04 08:14:54;;;;;;;53.03;48.90;;;9.80;99.90;;;;;;5226707;28;20108;-63
2023/03/04 08:17:25;;;;;;;56.63;52.40;;;10.10;99.90;;;;;;5221049;28;20132;-63
2023/03/04 08:19:55;;;;;;;51.83;47.65;;;10.10;99.90;;;;;;5201246;28;20038;-63
2023/03/04 08:22:26;;;;;;;51.25;47.50;;;10.30;99.90;;;;;;5198533;28;20025;-64
2023/03/04 08:24:57;;;;;;;48.80;45.08;;;10.20;99.90;;;;;;5177652;28;20433;-63
2023/03/04 08:27:28;;;;;;;47.78;44.28;;;10.40;99.90;;;;;;5195828;28;20057;-64
2023/03/04 08:29:59;;;;;;;49.78;45.80;;;10.50;99.90;;;;;;5197461;28;20034;-62
2023/03/04 08:32:30;;;;;;;47.72;44.17;;;10.60;99.90;;;;;;5197619;28;20014;-64
2023/03/04 08:35:01;;;;;;;48.60;44.95;;;10.60;99.90;;;;;;5176301;28;20029;-66
2023/03/04 08:37:34;;;;;;;46.65;43.03;;;10.50;99.90;;;;;;5194879;28;20491;-65
2023/03/04 08:40:05;;;;;;;50.42;46.85;;;10.60;99.90;;;;;;5197223;28;20046;-64
2023/03/04 08:42:36;;;;;;;48.80;45.30;;;10.30;99.90;;;;;;5129364;28;20034;-64
2023/03/04 08:45:08;;;;;;;52.13;48.35;;;10.60;99.90;;;;;;5183730;28;20029;-62
2023/03/04 08:47:39;;;;;;;50.80;47.22;;;10.70;99.90;;;;;;5184562;28;20101;-64
2023/03/04 08:50:10;;;;;;;50.97;47.45;;;10.40;99.90;;;;;;5187864;28;20402;-63
2023/03/04 08:52:41;;;;;;;49.03;45.50;;;10.50;99.90;;;;;;5186567;28;20509;-64
2023/03/04 08:55:12;;;;;;;70.47;65.10;;;10.50;99.90;;;;;;5187708;28;20076;-63
2023/03/04 08:57:43;;;;;;;50.50;46.88;;;10.90;99.90;;;;;;5185469;28;20030;-64
2023/03/04 09:00:15;;;;;;;49.03;45.60;;;11.10;99.90;;;;;;5187442;28;20022;-62
2023/03/04 09:02:45;;;;;;;56.83;52.72;;;11.10;99.90;;;;;;5186714;28;20144;-64
2023/03/04 09:05:16;;;;;;;65.32;60.75;;;11.10;99.90;;;;;;5187531;28;20112;-63
2023/03/04 09:07:47;;;;;;;61.92;57.65;;;11.40;99.90;;;;;;5186942;28;20034;-63
2023/03/04 09:10:18;;;;;;;60.88;56.83;;;11.40;99.90;;;;;;5188717;28;20057;-64
2023/03/04 09:12:50;;;;;;;65.03;60.92;;;11.10;99.90;;;;;;5188831;28;20014;-63
2023/03/04 09:15:21;;;;;;;61.85;57.80;;;11.40;99.90;;;;;;5188486;28;20026;-63
2023/03/04 09:17:54;;;;;;;42.92;40.38;;;11.60;99.90;;;;;;5183825;28;20041;-65
2023/03/04 09:20:27;;;;;;;67.75;63.30;;;11.70;99.90;;;;;;5188643;28;20121;-64
2023/03/04 09:23:00;;;;;;;43.00;39.92;;;11.60;99.90;;;;;;5188628;28;20014;-64
2023/03/04 09:25:33;;;;;;;67.95;63.63;;;11.70;99.90;;;;;;5188408;28;20056;-64
2023/03/04 09:28:07;;;;;;;72.60;67.90;;;11.60;99.90;;;;;;5188110;28;20049;-64
2023/03/04 09:30:40;;;;;;;62.80;58.70;;;11.70;99.90;;;;;;5187160;28;20029;-64
2023/03/04 09:33:16;;;;;;;70.03;65.15;;;11.50;99.90;;;;;;5188462;28;20578;-64
2023/03/04 09:35:49;;;;;;;61.17;57.17;;;11.80;99.90;;;;;;5188445;28;20026;-64
2023/03/04 09:38:20;;;;;;;56.55;52.95;;;12.10;99.90;;;;;;5187888;28;20580;-64
2023/03/04 09:40:50;;;;;;;58.53;54.90;;;12.10;99.90;;;;;;5181386;28;20049;-64
2023/03/04 09:43:28;;;;;;;71.85;67.07;;;12.10;99.90;;;;;;5186982;28;20018;-64
2023/03/04 09:46:14;;;;;;;153.30;135.48;;;12.10;99.90;;;;;;5187055;28;20033;-67
2023/03/04 09:48:54;;;;;;;75.78;71.30;;;11.90;99.90;;;;;;5185618;28;20409;-68
2023/03/04 09:51:52;;;;;;;68.28;63.95;;;12.40;99.90;;;;;;5184506;28;20024;-68
2023/03/04 09:55:00;;;;;;;45.70;42.83;;;12.50;99.90;;;;;;5184127;28;20066;-65
2023/03/04 09:58:05;;;;;;;50.08;46.70;;;12.60;99.90;;;;;;5185251;28;20041;-64
2023/03/04 10:01:11;;;;;;;55.90;51.92;;;12.20;99.90;;;;;;5185389;28;20021;-65
2023/03/04 10:03:47;;;;;;;58.55;54.88;;;12.30;99.90;;;;;;5187167;28;20431;-65
2023/03/04 10:06:21;;;;;;;65.60;61.05;;;12.30;99.90;;;;;;5186894;28;20064;-66
2023/03/04 10:09:04;;;;;;;52.67;49.28;;;12.20;99.90;;;;;;5186575;28;20028;-66
2023/03/04 10:12:00;;;;;;;47.80;44.40;;;12.10;99.90;;;;;;5185902;28;20030;-68
2023/03/04 10:14:44;;;;;;;50.67;46.85;;;12.20;99.90;;;;;;5176790;28;20053;-68
2023/03/04 10:17:23;;;;;;;35.60;33.00;;;12.30;99.90;;;;;;5167354;28;20037;-64
2023/03/04 10:20:20;;;;;;;86.82;80.53;;;12.10;99.90;;;;;;5167228;28;20038;-69
2023/03/04 10:23:25;;;;;;;42.00;38.97;;;12.60;99.90;;;;;;5167157;28;20030;-67
2023/03/04 10:26:09;;;;;;;52.97;49.10;;;12.60;99.90;;;;;;5183632;28;20057;-69
2023/03/04 10:28:41;;;;;;;49.40;45.95;;;12.50;99.90;;;;;;5181967;28;20043;-69
2023/03/04 10:31:37;;;;;;;63.55;58.83;;;12.80;99.90;;;;;;5184843;28;20032;-67
2023/03/04 10:34:11;;;;;;;62.38;57.95;;;13.10;99.90;;;;;;5181956;28;20032;-65
2023/03/04 10:37:04;;;;;;;58.05;53.67;;;13.30;99.90;;;;;;5183893;28;20030;-66
2023/03/04 10:39:36;;;;;;;44.42;41.17;;;13.50;99.90;;;;;;5186897;28;20042;-64
2023/03/04 10:42:12;;;;;;;53.53;49.10;;;12.70;99.90;;;;;;5187059;28;20026;-65
2023/03/04 10:44:54;;;;;;;56.63;52.15;;;13.20;99.90;;;;;;5187293;28;20045;-66
2023/03/04 10:47:27;;;;;;;54.72;50.33;;;13.30;99.90;;;;;;5185654;28;20097;-63
2023/03/04 10:50:00;;;;;;;61.75;56.78;;;13.20;99.90;;;;;;5190880;28;20041;-64
2023/03/04 10:52:35;;;;;;;56.65;52.05;;;13.40;99.90;;;;;;5186794;28;20168;-64
2023/03/04 10:55:15;;;;;;;47.97;44.30;;;13.40;99.90;;;;;;5185015;28;20026;-63
2023/03/04 10:58:13;;;;;;;49.28;45.50;;;13.80;99.90;;;;;;5185456;28;20061;-64
2023/03/04 11:01:01;;;;;;;48.30;44.63;;;13.90;99.90;;;;;;5176031;28;20041;-65
2023/03/04 11:03:48;;;;;;;51.70;47.90;;;13.90;99.90;;;;;;5166539;28;20053;-67
2023/03/04 11:06:26;;;;;;;49.13;45.40;;;14.30;99.90;;;;;;5166678;28;20109;-65
2023/03/04 11:09:04;;;;;;;29.10;26.80;;;14.70;99.90;;;;;;5175749;28;20021;-66
2023/03/04 11:11:43;;;;;;;34.70;32.00;;;14.60;99.90;;;;;;5181485;28;20030;-67
2023/03/04 11:14:43;;;;;;;31.67;29.45;;;14.10;99.90;;;;;;5182407;28;20033;-67
2023/03/04 11:17:46;;;;;;;38.20;35.42;;;14.30;99.90;;;;;;5154214;28;20552;-67
2023/03/04 11:20:37;;;;;;;45.92;42.58;;;14.10;99.90;;;;;;5180651;28;20042;-65
2023/03/04 11:23:33;;;;;;;50.95;47.55;;;13.80;99.90;;;;;;5174315;28;20026;-66
2023/03/04 11:26:15;;;;;;;49.17;45.63;;;14.50;99.90;;;;;;5182010;28;20065;-66
2023/03/04 11:29:01;;;;;;;52.63;48.42;;;14.00;99.90;;;;;;5186111;28;20117;-65
2023/03/04 11:31:38;;;;;;;61.00;56.92;;;13.70;99.90;;;;;;5186291;28;20029;-64
2023/03/04 11:34:28;;;;;;;52.70;49.03;;;13.60;99.90;;;;;;5177446;28;20036;-68
2023/03/04 11:37:17;;;;;;;;;;;14.10;99.90;;;;;;5181032;28;20037;-65
2023/03/04 11:40:00;;;;;;;64.57;60.03;;;14.00;99.90;;;;;;5166295;28;19921;-65
2023/03/04 11:43:06;;;;;;;56.22;51.63;;;13.90;99.90;;;;;;5176914;28;20030;-67
2023/03/04 11:46:14;;;;;;;55.33;51.38;;;14.20;99.90;;;;;;5174415;28;20052;-64
2023/03/04 11:49:04;;;;;;;51.95;48.40;;;14.00;99.90;;;;;;5185232;28;20037;-66
2023/03/04 11:51:44;;;;;;;51.13;47.45;;;14.10;99.90;;;;;;5185866;28;20017;-66
2023/03/04 11:54:21;;;;;;;47.97;44.55;;;13.90;99.90;;;;;;5185895;28;20037;-66
2023/03/04 11:57:15;;;;;;;62.60;58.05;;;14.30;99.90;;;;;;5178184;28;20061;-65
2023/03/04 11:59:57;;;;;;;52.20;48.33;;;13.50;99.90;;;;;;5166936;28;20505;-64
2023/03/04 12:03:05;;;;;;;52.88;49.00;;;14.20;99.90;;;;;;5176962;28;20030;-65
2023/03/04 12:06:01;;;;;;;51.70;48.10;;;14.40;99.90;;;;;;5184521;28;20415;-64
2023/03/04 12:08:38;;;;;;;66.07;61.47;;;14.30;99.90;;;;;;5168577;28;20034;-68
2023/03/04 12:11:22;;;;;;;53.53;49.42;;;13.80;99.90;;;;;;5184058;28;20041;-66
2023/03/04 12:14:15;;;;;;;61.42;56.55;;;13.70;99.90;;;;;;5182989;28;20026;-64
2023/03/04 12:16:51;;;;;;;56.00;51.63;;;13.90;99.90;;;;;;5182587;28;20433;-65
2023/03/04 12:19:29;;;;;;;55.60;51.05;;;14.20;99.90;;;;;;5174699;28;20034;-66
2023/03/04 12:22:25;;;;;;;57.25;52.95;;;14.10;99.90;;;;;;5175095;28;20030;-66
2023/03/04 12:25:34;;;;;;;59.38;55.05;;;14.00;99.90;;;;;;5171897;28;20023;-65
2023/03/04 12:28:42;;;;;;;54.65;50.42;;;14.10;99.90;;;;;;5164841;28;20065;-64
2023/03/04 12:31:37;;;;;;;55.50;51.25;;;14.20;99.90;;;;;;5171661;28;20026;-65
2023/03/04 12:34:22;;;;;;;59.80;54.80;;;13.90;99.90;;;;;;5190101;28;20490;-64
2023/03/04 12:37:14;;;;;;;62.28;57.33;;;13.80;99.90;;;;;;5191372;28;20030;-65
2023/03/04 12:39:50;;;;;;;57.88;53.22;;;13.60;99.90;;;;;;5191389;28;20046;-65
2023/03/04 12:42:31;;;;;;;61.83;57.08;;;13.90;99.90;;;;;;5184870;28;20357;-66
2023/03/04 12:45:22;;;;;;;60.42;55.90;;;13.90;99.90;;;;;;5190877;28;20045;-65
2023/03/04 12:48:11;;;;;;;60.25;55.58;;;13.90;99.90;;;;;;5188398;28;20029;-64
2023/03/04 12:51:00;;;;;;;55.45;51.42;;;14.00;99.90;;;;;;5190806;28;20052;-64
2023/03/04 12:53:44;;;;;;;50.47;46.75;;;14.00;99.90;;;;;;5191796;28;20029;-68
2023/03/04 12:56:51;;;;;;;57.30;53.30;;;13.80;99.90;;;;;;5190207;28;20042;-68
2023/03/04 12:59:25;;;;;;;80.13;71.65;;;13.60;99.90;;;;;;5191378;28;20046;-66
2023/03/04 13:02:25;;;;;;;63.47;57.58;;;13.80;99.90;;;;;;5191553;28;20536;-65
2023/03/04 13:05:15;;;;;;;;;;;13.80;99.90;;;;;;5188731;28;20052;-67
2023/03/04 13:08:06;;;;;;;51.45;47.53;;;13.60;99.90;;;;;;5190942;28;19996;-64
2023/03/04 13:10:37;;;;;;;89.22;82.35;;;13.70;99.90;;;;;;5190713;28;20026;-67
2023/03/04 13:13:38;;;;;;;54.88;50.00;;;13.70;99.90;;;;;;5177588;28;20061;-64
2023/03/04 13:16:18;;;;;;;50.92;46.78;;;13.50;99.90;;;;;;5187665;28;20033;-64